sensor_id;sensor_type;location;lat;lon;timestamp;pressure;altitude;pressure_sealevel;temperature;humidity
73171;BME280;61381;50.118;19.962;2023-08-06T00:01:28;97166.25;;;22.82;100.00
73171;BME280;61381;50.118;19.962;2023-08-06T00:06:30;97170.19;;;22.73;100.00
73171;BME280;61381;50.118;19.962;2023-08-06T00:11:31;97161.69;;;22.60;100.00
73171;BME280;61381;50.118;19.962;2023-08-06T00:16:31;97139.81;;;22.64;100.00
73171;BME280;61381;50.118;19.962;2023-08-06T00:21:34;97131.31;;;22.51;100.00
73171;BME280;61381;50.118;19.962;2023-08-06T00:26:34;97092.56;;;21.68;100.00
73171;BME280;61381;50.118;19.962;2023-08-06T00:31:35;97085.84;;;22.05;100.00
73171;BME280;61381;50.118;19.962;2023-08-06T00:36:38;97063.28;;;21.97;100.00
73171;BME280;61381;50.118;19.962;2023-08-06T00:41:38;97057.50;;;21.84;100.00
73171;BME280;61381;50.118;19.962;2023-08-06T00:46:39;97045.28;;;22.18;100.00
73171;BME280;61381;50.118;19.962;2023-08-06T00:51:42;97027.91;;;21.79;100.00
73171;BME280;61381;50.118;19.962;2023-08-06T00:56:43;96947.28;;;21.78;100.00
73171;BME280;61381;50.118;19.962;2023-08-06T01:01:45;96983.72;;;22.17;100.00
73171;BME280;61381;50.118;19.962;2023-08-06T01:06:50;96875.75;;;21.56;100.00
73171;BME280;61381;50.118;19.962;2023-08-06T01:11:59;96969.03;;;21.96;100.00
73171;BME280;61381;50.118;19.962;2023-08-06T01:17:01;96982.84;;;22.34;100.00
73171;BME280;61381;50.118;19.962;2023-08-06T01:22:04;96990.50;;;22.57;100.00
73171;BME280;61381;50.118;19.962;2023-08-06T01:27:08;97014.91;;;22.79;100.00
73171;BME280;61381;50.118;19.962;2023-08-06T01:32:13;97019.97;;;23.29;100.00
73171;BME280;61381;50.118;19.962;2023-08-06T01:37:16;96992.31;;;23.24;100.00
73171;BME280;61381;50.118;19.962;2023-08-06T01:42:17;96982.00;;;23.39;100.00
73171;BME280;61381;50.118;19.962;2023-08-06T01:47:18;96969.34;;;23.52;100.00
73171;BME280;61381;50.118;19.962;2023-08-06T01:52:20;96973.44;;;23.71;100.00
73171;BME280;61381;50.118;19.962;2023-08-06T01:57:21;96970.84;;;23.57;100.00
73171;BME280;61381;50.118;19.962;2023-08-06T02:02:22;96953.91;;;23.69;100.00
73171;BME280;61381;50.118;19.962;2023-08-06T02:07:24;96951.28;;;23.27;100.00
73171;BME280;61381;50.118;19.962;2023-08-06T02:12:25;96947.31;;;23.66;100.00
73171;BME280;61381;50.118;19.962;2023-08-06T02:17:26;96947.53;;;23.48;100.00
73171;BME280;61381;50.118;19.962;2023-08-06T02:22:28;96937.13;;;23.36;100.00
73171;BME280;61381;50.118;19.962;2023-08-06T02:27:29;96937.22;;;23.60;100.00
73171;BME280;61381;50.118;19.962;2023-08-06T02:32:30;96937.00;;;23.78;100.00
73171;BME280;61381;50.118;19.962;2023-08-06T02:37:34;96927.78;;;23.68;100.00
73171;BME280;61381;50.118;19.962;2023-08-06T02:42:35;96932.97;;;23.59;100.00
73171;BME280;61381;50.118;19.962;2023-08-06T02:47:36;96926.88;;;23.44;100.00
73171;BME280;61381;50.118;19.962;2023-08-06T02:52:38;96908.47;;;23.13;100.00
73171;BME280;61381;50.118;19.962;2023-08-06T02:57:39;96899.56;;;23.09;100.00
73171;BME280;61381;50.118;19.962;2023-08-06T03:02:39;96902.03;;;22.93;100.00
73171;BME280;61381;50.118;19.962;2023-08-06T03:07:42;96910.75;;;23.53;100.00
73171;BME280;61381;50.118;19.962;2023-08-06T03:12:43;96910.75;;;23.53;100.00
73171;BME280;61381;50.118;19.962;2023-08-06T03:17:44;96912.78;;;23.80;100.00
73171;BME280;61381;50.118;19.962;2023-08-06T03:22:46;96898.88;;;23.36;100.00
73171;BME280;61381;50.118;19.962;2023-08-06T03:27:47;96898.28;;;23.18;100.00
73171;BME280;61381;50.118;19.962;2023-08-06T03:32:47;96881.78;;;23.28;100.00
73171;BME280;61381;50.118;19.962;2023-08-06T03:37:50;96867.03;;;23.22;100.00
73171;BME280;61381;50.118;19.962;2023-08-06T03:42:51;96863.56;;;23.49;100.00
73171;BME280;61381;50.118;19.962;2023-08-06T03:47:51;96860.72;;;23.56;100.00
73171;BME280;61381;50.118;19.962;2023-08-06T03:52:54;96851.44;;;23.50;100.00
73171;BME280;61381;50.118;19.962;2023-08-06T03:57:54;96843.31;;;23.46;100.00
73171;BME280;61381;50.118;19.962;2023-08-06T04:02:55;96831.94;;;23.48;100.00
73171;BME280;61381;50.118;19.962;2023-08-06T04:07:58;96814.97;;;23.33;100.00
73171;BME280;61381;50.118;19.962;2023-08-06T04:12:58;96817.91;;;23.15;100.00
73171;BME280;61381;50.118;19.962;2023-08-06T04:17:59;96821.19;;;23.33;100.00
73171;BME280;61381;50.118;19.962;2023-08-06T04:23:05;96820.63;;;23.19;100.00
73171;BME280;61381;50.118;19.962;2023-08-06T04:28:06;96819.53;;;23.71;100.00
73171;BME280;61381;50.118;19.962;2023-08-06T04:33:07;96817.88;;;23.77;100.00
73171;BME280;61381;50.118;19.962;2023-08-06T04:38:09;96812.97;;;23.64;100.00
73171;BME280;61381;50.118;19.962;2023-08-06T04:43:10;96806.22;;;23.73;100.00
73171;BME280;61381;50.118;19.962;2023-08-06T04:48:11;96812.69;;;23.86;100.00
73171;BME280;61381;50.118;19.962;2023-08-06T04:53:14;96802.97;;;23.54;100.00
73171;BME280;61381;50.118;19.962;2023-08-06T04:58:15;96813.28;;;23.70;100.00
73171;BME280;61381;50.118;19.962;2023-08-06T05:03:16;96804.97;;;23.50;100.00
73171;BME280;61381;50.118;19.962;2023-08-06T05:08:19;96793.41;;;23.39;100.00
73171;BME280;61381;50.118;19.962;2023-08-06T05:13:19;96788.66;;;23.15;100.00
73171;BME280;61381;50.118;19.962;2023-08-06T05:18:20;96783.22;;;23.12;100.00
73171;BME280;61381;50.118;19.962;2023-08-06T05:23:23;96775.53;;;23.00;100.00
73171;BME280;61381;50.118;19.962;2023-08-06T05:28:24;96766.09;;;23.08;100.00
73171;BME280;61381;50.118;19.962;2023-08-06T05:33:24;96758.03;;;23.28;100.00
73171;BME280;61381;50.118;19.962;2023-08-06T05:38:27;96743.22;;;22.94;100.00
73171;BME280;61381;50.118;19.962;2023-08-06T05:43:27;96725.84;;;22.81;100.00
73171;BME280;61381;50.118;19.962;2023-08-06T05:48:28;96712.66;;;23.03;100.00
73171;BME280;61381;50.118;19.962;2023-08-06T05:53:30;96717.91;;;23.21;100.00
73171;BME280;61381;50.118;19.962;2023-08-06T05:58:31;96718.72;;;22.87;100.00
73171;BME280;61381;50.118;19.962;2023-08-06T06:03:32;96705.97;;;22.80;100.00
73171;BME280;61381;50.118;19.962;2023-08-06T06:08:34;96697.66;;;22.88;100.00
73171;BME280;61381;50.118;19.962;2023-08-06T06:13:35;96688.81;;;23.07;100.00
73171;BME280;61381;50.118;19.962;2023-08-06T06:18:36;96682.78;;;23.23;100.00
73171;BME280;61381;50.118;19.962;2023-08-06T06:23:38;96673.94;;;23.39;100.00
73171;BME280;61381;50.118;19.962;2023-08-06T06:28:39;96664.97;;;23.39;100.00
73171;BME280;61381;50.118;19.962;2023-08-06T06:33:40;96677.13;;;23.07;100.00
73171;BME280;61381;50.118;19.962;2023-08-06T06:38:42;96658.75;;;23.11;100.00
73171;BME280;61381;50.118;19.962;2023-08-06T06:43:43;96664.19;;;23.38;100.00
73171;BME280;61381;50.118;19.962;2023-08-06T06:48:44;96658.13;;;23.27;100.00
73171;BME280;61381;50.118;19.962;2023-08-06T06:53:46;96654.94;;;23.01;100.00
73171;BME280;61381;50.118;19.962;2023-08-06T06:58:47;96665.03;;;23.59;100.00
73171;BME280;61381;50.118;19.962;2023-08-06T07:03:48;96655.31;;;23.30;100.00
73171;BME280;61381;50.118;19.962;2023-08-06T07:08:50;96658.72;;;23.38;100.00
73171;BME280;61381;50.118;19.962;2023-08-06T07:13:56;96661.03;;;24.11;100.00
73171;BME280;61381;50.118;19.962;2023-08-06T07:18:57;96652.66;;;23.98;100.00
73171;BME280;61381;50.118;19.962;2023-08-06T07:23:59;96654.78;;;24.30;100.00
73171;BME280;61381;50.118;19.962;2023-08-06T07:29:00;96646.53;;;23.90;100.00
73171;BME280;61381;50.118;19.962;2023-08-06T07:34:01;96636.97;;;24.02;100.00
73171;BME280;61381;50.118;19.962;2023-08-06T07:39:03;96656.84;;;24.26;100.00
73171;BME280;61381;50.118;19.962;2023-08-06T07:44:04;96666.56;;;24.07;100.00
73171;BME280;61381;50.118;19.962;2023-08-06T07:49:05;96651.84;;;24.21;100.00
73171;BME280;61381;50.118;19.962;2023-08-06T07:54:07;96667.06;;;23.55;100.00
73171;BME280;61381;50.118;19.962;2023-08-06T07:59:08;96669.31;;;22.78;100.00
73171;BME280;61381;50.118;19.962;2023-08-06T08:04:09;96666.22;;;22.07;100.00
73171;BME280;61381;50.118;19.962;2023-08-06T08:09:11;96676.72;;;21.67;100.00
73171;BME280;61381;50.118;19.962;2023-08-06T08:14:12;96672.31;;;21.80;100.00
73171;BME280;61381;50.118;19.962;2023-08-06T08:19:13;96653.13;;;21.91;100.00
73171;BME280;61381;50.118;19.962;2023-08-06T08:24:15;96649.75;;;22.14;100.00
73171;BME280;61381;50.118;19.962;2023-08-06T08:29:16;96667.94;;;22.62;100.00
73171;BME280;61381;50.118;19.962;2023-08-06T08:34:17;96673.03;;;22.26;100.00
73171;BME280;61381;50.118;19.962;2023-08-06T08:39:19;96686.69;;;21.84;100.00
73171;BME280;61381;50.118;19.962;2023-08-06T08:44:21;96700.31;;;21.84;100.00
73171;BME280;61381;50.118;19.962;2023-08-06T08:49:23;96686.63;;;21.39;100.00
73171;BME280;61381;50.118;19.962;2023-08-06T08:54:26;96672.56;;;21.51;100.00
73171;BME280;61381;50.118;19.962;2023-08-06T08:59:27;96702.50;;;20.92;100.00
73171;BME280;61381;50.118;19.962;2023-08-06T09:04:29;96685.66;;;21.15;100.00
73171;BME280;61381;50.118;19.962;2023-08-06T09:09:33;96672.53;;;21.55;100.00
73171;BME280;61381;50.118;19.962;2023-08-06T09:14:34;96661.25;;;21.57;100.00
73171;BME280;61381;50.118;19.962;2023-08-06T09:19:35;96656.81;;;21.70;100.00
73171;BME280;61381;50.118;19.962;2023-08-06T09:24:39;96659.72;;;21.94;100.00
73171;BME280;61381;50.118;19.962;2023-08-06T09:29:41;96667.88;;;21.48;100.00
73171;BME280;61381;50.118;19.962;2023-08-06T09:34:43;96655.50;;;21.89;100.00
73171;BME280;61381;50.118;19.962;2023-08-06T09:39:45;96661.88;;;21.23;100.00
73171;BME280;61381;50.118;19.962;2023-08-06T09:44:46;96664.72;;;21.01;100.00
73171;BME280;61381;50.118;19.962;2023-08-06T09:49:47;96672.97;;;21.46;100.00
73171;BME280;61381;50.118;19.962;2023-08-06T09:54:50;96677.94;;;21.02;100.00
73171;BME280;61381;50.118;19.962;2023-08-06T09:59:52;96668.66;;;21.52;100.00
73171;BME280;61381;50.118;19.962;2023-08-06T10:04:55;96671.66;;;21.13;100.00
73171;BME280;61381;50.118;19.962;2023-08-06T10:09:58;96706.09;;;20.63;100.00
73171;BME280;61381;50.118;19.962;2023-08-06T10:15:03;96705.25;;;20.88;100.00
73171;BME280;61381;50.118;19.962;2023-08-06T10:20:05;96702.91;;;20.87;100.00
73171;BME280;61381;50.118;19.962;2023-08-06T10:25:08;96696.00;;;20.71;100.00
73171;BME280;61381;50.118;19.962;2023-08-06T10:30:22;96686.00;;;20.36;100.00
73171;BME280;61381;50.118;19.962;2023-08-06T10:35:31;96696.03;;;20.57;100.00
73171;BME280;61381;50.118;19.962;2023-08-06T10:40:33;96699.59;;;20.28;100.00
73171;BME280;61381;50.118;19.962;2023-08-06T10:45:35;96703.78;;;20.55;100.00
73171;BME280;61381;50.118;19.962;2023-08-06T10:50:37;96701.50;;;20.46;100.00
73171;BME280;61381;50.118;19.962;2023-08-06T10:55:39;96701.63;;;20.06;100.00
73171;BME280;61381;50.118;19.962;2023-08-06T11:00:40;96691.13;;;19.90;100.00
73171;BME280;61381;50.118;19.962;2023-08-06T11:05:41;96694.56;;;20.27;100.00
73171;BME280;61381;50.118;19.962;2023-08-06T11:10:50;96688.31;;;20.44;100.00
73171;BME280;61381;50.118;19.962;2023-08-06T11:15:52;96685.59;;;20.37;100.00
73171;BME280;61381;50.118;19.962;2023-08-06T11:20:53;96680.63;;;20.07;100.00
73171;BME280;61381;50.118;19.962;2023-08-06T11:25:56;96700.44;;;20.07;100.00
73171;BME280;61381;50.118;19.962;2023-08-06T11:30:58;96710.06;;;20.44;100.00
73171;BME280;61381;50.118;19.962;2023-08-06T11:35:59;96717.56;;;19.86;100.00
73171;BME280;61381;50.118;19.962;2023-08-06T11:41:03;96726.47;;;19.98;100.00
73171;BME280;61381;50.118;19.962;2023-08-06T11:46:04;96732.66;;;19.58;100.00
73171;BME280;61381;50.118;19.962;2023-08-06T11:51:11;96722.56;;;19.45;100.00
73171;BME280;61381;50.118;19.962;2023-08-06T11:56:14;96734.59;;;19.51;100.00
73171;BME280;61381;50.118;19.962;2023-08-06T12:01:15;96737.66;;;19.24;100.00
73171;BME280;61381;50.118;19.962;2023-08-06T12:06:16;96750.06;;;19.32;100.00
73171;BME280;61381;50.118;19.962;2023-08-06T12:11:21;96750.06;;;19.21;100.00
73171;BME280;61381;50.118;19.962;2023-08-06T12:16:22;96754.72;;;19.17;100.00
73171;BME280;61381;50.118;19.962;2023-08-06T12:21:23;96760.13;;;19.14;100.00
73171;BME280;61381;50.118;19.962;2023-08-06T12:26:25;96758.53;;;18.95;100.00
73171;BME280;61381;50.118;19.962;2023-08-06T12:31:26;96766.19;;;18.82;100.00
73171;BME280;61381;50.118;19.962;2023-08-06T12:36:27;96782.06;;;18.83;100.00
73171;BME280;61381;50.118;19.962;2023-08-06T12:41:29;96800.34;;;18.86;100.00
73171;BME280;61381;50.118;19.962;2023-08-06T12:46:30;96777.34;;;18.66;100.00
73171;BME280;61381;50.118;19.962;2023-08-06T12:51:32;96774.53;;;19.39;100.00
73171;BME280;61381;50.118;19.962;2023-08-06T12:56:35;96771.19;;;18.72;100.00
73171;BME280;61381;50.118;19.962;2023-08-06T13:01:37;96784.41;;;18.81;100.00
73171;BME280;61381;50.118;19.962;2023-08-06T13:06:38;96789.06;;;18.81;100.00
73171;BME280;61381;50.118;19.962;2023-08-06T13:11:40;96805.88;;;19.12;100.00
73171;BME280;61381;50.118;19.962;2023-08-06T13:16:42;96819.28;;;18.79;100.00
73171;BME280;61381;50.118;19.962;2023-08-06T13:22:01;96827.56;;;19.01;100.00
73171;BME280;61381;50.118;19.962;2023-08-06T13:27:04;96838.16;;;19.31;100.00
73171;BME280;61381;50.118;19.962;2023-08-06T13:32:05;96846.94;;;18.99;100.00
73171;BME280;61381;50.118;19.962;2023-08-06T13:37:06;96856.28;;;19.09;100.00
73171;BME280;61381;50.118;19.962;2023-08-06T13:42:08;96864.84;;;19.15;100.00
73171;BME280;61381;50.118;19.962;2023-08-06T13:47:09;96846.25;;;19.24;100.00
73171;BME280;61381;50.118;19.962;2023-08-06T13:52:10;96868.47;;;19.58;100.00
73171;BME280;61381;50.118;19.962;2023-08-06T13:57:12;96864.50;;;19.31;100.00
73171;BME280;61381;50.118;19.962;2023-08-06T14:02:13;96838.41;;;19.04;100.00
73171;BME280;61381;50.118;19.962;2023-08-06T14:07:14;96827.97;;;19.10;100.00
73171;BME280;61381;50.118;19.962;2023-08-06T14:12:16;96837.44;;;19.56;100.00
73171;BME280;61381;50.118;19.962;2023-08-06T14:17:17;96859.50;;;19.33;100.00
73171;BME280;61381;50.118;19.962;2023-08-06T14:22:18;96884.84;;;19.73;100.00
73171;BME280;61381;50.118;19.962;2023-08-06T14:27:20;96887.06;;;19.42;100.00
73171;BME280;61381;50.118;19.962;2023-08-06T14:32:21;96878.13;;;19.41;100.00
73171;BME280;61381;50.118;19.962;2023-08-06T14:37:22;96890.91;;;19.34;100.00
73171;BME280;61381;50.118;19.962;2023-08-06T14:42:24;96894.19;;;19.79;100.00
73171;BME280;61381;50.118;19.962;2023-08-06T14:47:25;96887.03;;;19.38;100.00
73171;BME280;61381;50.118;19.962;2023-08-06T14:52:26;96884.38;;;19.53;100.00
73171;BME280;61381;50.118;19.962;2023-08-06T14:57:28;96893.38;;;19.75;100.00
73171;BME280;61381;50.118;19.962;2023-08-06T15:02:29;96886.44;;;19.77;100.00
73171;BME280;61381;50.118;19.962;2023-08-06T15:07:30;96904.34;;;20.04;100.00
73171;BME280;61381;50.118;19.962;2023-08-06T15:12:32;96905.13;;;20.15;100.00
73171;BME280;61381;50.118;19.962;2023-08-06T15:17:33;96913.16;;;19.72;100.00
73171;BME280;61381;50.118;19.962;2023-08-06T15:22:34;96944.69;;;19.87;100.00
73171;BME280;61381;50.118;19.962;2023-08-06T15:27:36;96957.19;;;20.21;100.00
73171;BME280;61381;50.118;19.962;2023-08-06T15:32:37;96967.22;;;19.88;100.00
73171;BME280;61381;50.118;19.962;2023-08-06T15:37:38;96964.03;;;19.75;100.00
73171;BME280;61381;50.118;19.962;2023-08-06T15:42:41;96968.59;;;19.56;100.00
73171;BME280;61381;50.118;19.962;2023-08-06T15:47:42;96974.63;;;19.21;100.00
73171;BME280;61381;50.118;19.962;2023-08-06T15:52:42;96991.03;;;19.42;100.00
73171;BME280;61381;50.118;19.962;2023-08-06T15:57:45;96999.97;;;19.43;100.00
73171;BME280;61381;50.118;19.962;2023-08-06T16:02:45;97009.06;;;19.76;100.00
73171;BME280;61381;50.118;19.962;2023-08-06T16:07:49;97020.03;;;19.94;100.00
73171;BME280;61381;50.118;19.962;2023-08-06T16:12:51;97021.03;;;19.64;100.00
73171;BME280;61381;50.118;19.962;2023-08-06T16:17:52;97023.22;;;19.37;100.00
73171;BME280;61381;50.118;19.962;2023-08-06T16:22:53;97033.84;;;19.04;100.00
73171;BME280;61381;50.118;19.962;2023-08-06T16:27:55;97037.47;;;19.23;100.00
73171;BME280;61381;50.118;19.962;2023-08-06T16:32:56;97036.47;;;18.94;100.00
73171;BME280;61381;50.118;19.962;2023-08-06T16:37:57;97040.53;;;19.14;100.00
73171;BME280;61381;50.118;19.962;2023-08-06T16:42:59;97042.72;;;18.98;100.00
73171;BME280;61381;50.118;19.962;2023-08-06T16:48:00;97049.38;;;18.66;100.00
73171;BME280;61381;50.118;19.962;2023-08-06T16:53:01;97027.59;;;18.56;100.00
73171;BME280;61381;50.118;19.962;2023-08-06T16:58:03;97028.78;;;18.58;100.00
73171;BME280;61381;50.118;19.962;2023-08-06T17:03:04;97040.13;;;18.71;100.00
73171;BME280;61381;50.118;19.962;2023-08-06T17:08:05;97038.22;;;18.71;100.00
73171;BME280;61381;50.118;19.962;2023-08-06T17:13:07;97064.81;;;18.59;100.00
73171;BME280;61381;50.118;19.962;2023-08-06T17:18:08;97056.41;;;18.71;100.00
73171;BME280;61381;50.118;19.962;2023-08-06T17:23:09;97065.63;;;18.59;100.00
73171;BME280;61381;50.118;19.962;2023-08-06T17:28:12;97060.94;;;18.22;100.00
73171;BME280;61381;50.118;19.962;2023-08-06T17:33:13;97086.78;;;18.46;100.00
73171;BME280;61381;50.118;19.962;2023-08-06T17:38:14;97092.72;;;17.91;100.00
73171;BME280;61381;50.118;19.962;2023-08-06T17:43:16;97084.28;;;17.96;100.00
73171;BME280;61381;50.118;19.962;2023-08-06T17:48:17;97094.06;;;17.78;100.00
73171;BME280;61381;50.118;19.962;2023-08-06T17:53:18;97100.22;;;18.35;100.00
73171;BME280;61381;50.118;19.962;2023-08-06T17:58:21;97098.03;;;17.84;100.00
73171;BME280;61381;50.118;19.962;2023-08-06T18:03:22;97094.84;;;17.78;100.00
73171;BME280;61381;50.118;19.962;2023-08-06T18:08:23;97088.31;;;17.83;100.00
73171;BME280;61381;50.118;19.962;2023-08-06T18:13:26;97090.16;;;17.48;100.00
73171;BME280;61381;50.118;19.962;2023-08-06T18:18:26;97089.31;;;17.71;100.00
73171;BME280;61381;50.118;19.962;2023-08-06T18:23:27;97089.47;;;17.82;100.00
73171;BME280;61381;50.118;19.962;2023-08-06T18:28:30;97099.06;;;17.76;100.00
73171;BME280;61381;50.118;19.962;2023-08-06T18:33:31;97095.69;;;17.82;100.00
73171;BME280;61381;50.118;19.962;2023-08-06T18:38:31;97100.66;;;18.07;100.00
73171;BME280;61381;50.118;19.962;2023-08-06T18:43:34;97111.34;;;17.70;100.00
73171;BME280;61381;50.118;19.962;2023-08-06T18:48:35;97123.66;;;17.63;100.00
73171;BME280;61381;50.118;19.962;2023-08-06T18:53:35;97135.69;;;17.93;100.00
73171;BME280;61381;50.118;19.962;2023-08-06T18:58:38;97146.94;;;17.68;100.00
73171;BME280;61381;50.118;19.962;2023-08-06T19:03:38;97151.13;;;17.65;100.00
73171;BME280;61381;50.118;19.962;2023-08-06T19:08:39;97155.47;;;17.70;100.00
73171;BME280;61381;50.118;19.962;2023-08-06T19:13:42;97159.84;;;17.78;100.00
73171;BME280;61381;50.118;19.962;2023-08-06T19:18:42;97154.81;;;18.04;100.00
73171;BME280;61381;50.118;19.962;2023-08-06T19:23:43;97153.94;;;17.96;100.00
73171;BME280;61381;50.118;19.962;2023-08-06T19:28:46;97159.81;;;18.02;100.00
73171;BME280;61381;50.118;19.962;2023-08-06T19:33:47;97153.59;;;17.74;100.00
73171;BME280;61381;50.118;19.962;2023-08-06T19:38:48;97148.94;;;17.75;100.00
73171;BME280;61381;50.118;19.962;2023-08-06T19:43:50;97155.00;;;17.64;100.00
73171;BME280;61381;50.118;19.962;2023-08-06T19:48:51;97149.13;;;17.59;100.00
73171;BME280;61381;50.118;19.962;2023-08-06T19:53:52;97155.22;;;17.79;100.00
73171;BME280;61381;50.118;19.962;2023-08-06T19:58:54;97146.19;;;17.44;100.00
73171;BME280;61381;50.118;19.962;2023-08-06T20:03:55;97164.75;;;17.69;100.00
73171;BME280;61381;50.118;19.962;2023-08-06T20:08:56;97151.13;;;17.39;100.00
73171;BME280;61381;50.118;19.962;2023-08-06T20:13:58;97157.91;;;17.52;100.00
73171;BME280;61381;50.118;19.962;2023-08-06T20:18:59;97147.69;;;17.42;100.00
73171;BME280;61381;50.118;19.962;2023-08-06T20:24:00;97150.56;;;17.53;100.00
73171;BME280;61381;50.118;19.962;2023-08-06T20:29:02;97155.09;;;17.45;100.00
73171;BME280;61381;50.118;19.962;2023-08-06T20:34:03;97155.47;;;17.20;100.00
73171;BME280;61381;50.118;19.962;2023-08-06T20:39:04;97157.69;;;17.38;100.00
73171;BME280;61381;50.118;19.962;2023-08-06T20:44:06;97152.94;;;17.08;100.00
73171;BME280;61381;50.118;19.962;2023-08-06T20:49:07;97141.09;;;17.16;100.00
73171;BME280;61381;50.118;19.962;2023-08-06T20:54:08;97136.66;;;16.85;100.00
73171;BME280;61381;50.118;19.962;2023-08-06T20:59:10;97141.31;;;17.07;100.00
73171;BME280;61381;50.118;19.962;2023-08-06T21:04:12;97134.19;;;17.19;100.00
73171;BME280;61381;50.118;19.962;2023-08-06T21:09:13;97141.44;;;17.38;100.00
73171;BME280;61381;50.118;19.962;2023-08-06T21:14:15;97148.28;;;17.32;100.00
73171;BME280;61381;50.118;19.962;2023-08-06T21:19:16;97147.53;;;17.31;100.00
73171;BME280;61381;50.118;19.962;2023-08-06T21:24:17;97152.94;;;17.31;100.00
73171;BME280;61381;50.118;19.962;2023-08-06T21:29:20;97142.59;;;17.37;100.00
73171;BME280;61381;50.118;19.962;2023-08-06T21:34:21;97146.22;;;17.21;100.00
73171;BME280;61381;50.118;19.962;2023-08-06T21:39:28;97138.56;;;17.27;100.00
73171;BME280;61381;50.118;19.962;2023-08-06T21:44:30;97144.94;;;17.15;100.00
73171;BME280;61381;50.118;19.962;2023-08-06T21:49:31;97159.25;;;17.39;100.00
73171;BME280;61381;50.118;19.962;2023-08-06T21:54:32;97155.78;;;17.38;100.00
73171;BME280;61381;50.118;19.962;2023-08-06T21:59:34;97169.75;;;17.44;100.00
73171;BME280;61381;50.118;19.962;2023-08-06T22:04:35;97178.59;;;17.41;100.00
73171;BME280;61381;50.118;19.962;2023-08-06T22:09:36;97177.53;;;17.45;100.00
73171;BME280;61381;50.118;19.962;2023-08-06T22:14:38;97194.03;;;17.60;100.00
73171;BME280;61381;50.118;19.962;2023-08-06T22:19:39;97204.13;;;17.40;100.00
73171;BME280;61381;50.118;19.962;2023-08-06T22:24:41;97206.88;;;17.67;100.00
73171;BME280;61381;50.118;19.962;2023-08-06T22:29:43;97203.47;;;17.46;100.00
73171;BME280;61381;50.118;19.962;2023-08-06T22:34:44;97202.38;;;17.51;100.00
73171;BME280;61381;50.118;19.962;2023-08-06T22:39:45;97197.75;;;17.52;100.00
73171;BME280;61381;50.118;19.962;2023-08-06T22:44:47;97202.16;;;17.37;100.00
73171;BME280;61381;50.118;19.962;2023-08-06T22:49:48;97205.44;;;17.73;100.00
73171;BME280;61381;50.118;19.962;2023-08-06T22:54:49;97214.88;;;17.82;100.00
73171;BME280;61381;50.118;19.962;2023-08-06T22:59:51;97221.22;;;17.90;100.00
73171;BME280;61381;50.118;19.962;2023-08-06T23:04:52;97225.41;;;17.88;100.00
73171;BME280;61381;50.118;19.962;2023-08-06T23:09:53;97243.84;;;18.02;100.00
73171;BME280;61381;50.118;19.962;2023-08-06T23:14:55;97247.38;;;18.32;100.00
73171;BME280;61381;50.118;19.962;2023-08-06T23:19:56;97250.81;;;18.29;100.00
73171;BME280;61381;50.118;19.962;2023-08-06T23:24:57;97249.97;;;18.25;100.00
73171;BME280;61381;50.118;19.962;2023-08-06T23:29:59;97238.75;;;18.27;100.00
73171;BME280;61381;50.118;19.962;2023-08-06T23:35:00;97246.34;;;18.14;100.00
73171;BME280;61381;50.118;19.962;2023-08-06T23:40:01;97233.31;;;17.96;100.00
73171;BME280;61381;50.118;19.962;2023-08-06T23:45:03;97236.75;;;17.93;100.00
73171;BME280;61381;50.118;19.962;2023-08-06T23:50:05;97233.38;;;17.77;100.00
73171;BME280;61381;50.118;19.962;2023-08-06T23:55:07;97234.78;;;17.90;100.00
